Time;durP1;ratioP1;P1;durP2;ratioP2;P2;SDS_P1;SDS_P2;PMS_P1;PMS_P2;Temp;Humidity;BMP_temperature;BMP_pressure;BME280_temperature;BME280_humidity;BME280_pressure;Samples;Min_cycle;Max_cycle;Signal;HPM_P1;HPM_P2
2021/12/05 00:27:02;;;;;;;23.65;12.68;;;;;;;1.08;77.72;100374.03;1892801;76;22584;-64
2021/12/05 00:43:43;;;;;;;24.98;13.10;;;;;;;0.95;78.19;100364.28;1874015;76;22146;-62
2021/12/05 00:46:24;;;;;;;27.85;13.35;;;;;;;0.93;78.26;100363.50;1892783;76;22124;-61
2021/12/05 00:57:41;;;;;;;26.07;14.00;;;;;;;0.81;78.89;100370.75;1871289;76;22129;-61
2021/12/05 01:00:30;;;;;;;23.38;12.90;;;;;;;0.83;79.12;100363.64;1874027;76;22132;-61
2021/12/05 01:03:10;;;;;;;25.12;13.30;;;;;;;0.86;79.00;100356.95;1892820;76;22136;-64
2021/12/05 01:17:53;;;;;;;26.73;13.43;;;;;;;1.04;78.55;100338.54;1873908;76;22141;-61
2021/12/05 01:20:40;;;;;;;25.75;13.98;;;;;;;1.01;78.61;100336.45;1874028;76;22150;-64
2021/12/05 01:23:34;;;;;;;25.27;13.90;;;;;;;1.02;78.52;100336.83;1892714;76;22132;-64
2021/12/05 01:26:20;;;;;;;26.20;13.72;;;;;;;0.98;78.45;100326.62;1892809;76;22149;-64
2021/12/05 01:32:19;;;;;;;24.60;12.50;;;;;;;1.01;78.66;100330.39;1892941;76;22586;-63
2021/12/05 01:35:03;;;;;;;25.05;13.35;;;;;;;1.04;78.71;100331.53;1874036;76;22124;-62
2021/12/05 02:00:40;;;;;;;25.48;13.10;;;;;;;1.04;78.30;100349.84;1892830;76;22153;-64
2021/12/05 02:12:38;;;;;;;24.57;13.35;;;;;;;1.20;77.65;100353.73;1874029;76;22150;-64
2021/12/05 02:15:27;;;;;;;24.90;12.50;;;;;;;1.19;77.55;100355.97;1892827;76;22127;-64
2021/12/05 02:30:04;;;;;;;25.72;13.40;;;;;;;1.37;76.77;100348.38;1874028;76;22157;-64
2021/12/05 02:44:13;;;;;;;23.10;12.28;;;;;;;1.26;76.85;100344.20;1892819;76;22630;-65
2021/12/05 02:47:04;;;;;;;26.25;13.78;;;;;;;1.27;76.78;100347.19;1873988;76;22129;-65
2021/12/05 02:49:38;;;;;;;22.48;11.50;;;;;;;1.20;76.82;100351.11;1874020;76;22141;-65
2021/12/05 02:52:33;;;;;;;22.60;11.95;;;;;;;1.18;77.00;100360.84;1873884;76;22142;-64
2021/12/05 02:55:11;;;;;;;23.00;11.83;;;;;;;1.14;77.12;100356.23;1874147;76;22154;-64
2021/12/05 02:58:14;;;;;;;22.93;11.68;;;;;;;1.10;77.26;100350.80;1873996;76;22142;-65
2021/12/05 03:00:42;;;;;;;24.23;13.57;;;;;;;1.12;77.32;100356.77;1858100;76;28334;-64
2021/12/05 03:03:32;;;;;;;22.75;12.07;;;;;;;1.21;77.06;100352.79;1871186;76;22574;-64
2021/12/05 03:08:56;;;;;;;22.50;11.93;;;;;;;1.22;77.00;100348.80;1892926;76;22165;-64
2021/12/05 03:11:48;;;;;;;23.10;11.28;;;;;;;1.25;77.00;100341.22;1874004;76;22129;-64
2021/12/05 03:14:21;;;;;;;21.97;11.03;;;;;;;1.23;76.82;100339.17;1892810;76;22141;-61
2021/12/05 03:17:13;;;;;;;20.95;10.63;;;;;;;1.19;76.84;100339.80;1873985;76;22577;-64
2021/12/05 03:19:45;;;;;;;22.62;11.95;;;;;;;1.15;77.01;100335.67;1892837;76;22128;-64
2021/12/05 03:22:36;;;;;;;24.45;11.08;;;;;;;1.18;77.06;100330.74;1873998;76;22120;-64
2021/12/05 03:25:09;;;;;;;21.50;10.72;;;;;;;1.16;76.91;100332.12;1892821;76;22584;-64
2021/12/05 03:27:42;;;;;;;23.25;11.55;;;;;;;1.11;76.89;100332.85;1874027;76;22141;-64
2021/12/05 03:30:33;;;;;;;22.85;9.75;;;;;;;1.04;77.05;100335.92;1892763;76;22565;-64
2021/12/05 03:33:05;;;;;;;23.22;10.75;;;;;;;1.04;77.23;100339.84;1874014;76;22121;-64
2021/12/05 03:35:36;;;;;;;22.42;10.75;;;;;;;0.98;77.27;100341.02;1873920;76;22162;-64
2021/12/05 03:38:28;;;;;;;21.97;10.38;;;;;;;0.94;77.48;100332.52;1892792;76;22127;-61
2021/12/05 03:41:00;;;;;;;19.85;9.83;;;;;;;0.89;77.59;100333.69;1874026;76;22133;-64
2021/12/05 03:43:54;;;;;;;21.73;10.75;;;;;;;0.86;77.78;100333.41;1874098;76;22120;-64
2021/12/05 03:46:26;;;;;;;22.17;10.48;;;;;;;0.86;77.94;100331.26;1873924;76;22129;-64
2021/12/05 03:49:17;;;;;;;22.10;10.75;;;;;;;0.89;77.98;100327.14;1873991;76;22129;-64
2021/12/05 03:52:03;;;;;;;22.05;11.40;;;;;;;0.90;77.95;100334.09;1874009;76;22607;-65
2021/12/05 03:54:54;;;;;;;22.73;10.13;;;;;;;0.91;78.01;100332.69;1873992;76;22587;-64
2021/12/05 03:57:26;;;;;;;22.98;10.05;;;;;;;0.90;77.91;100323.16;1874033;76;22129;-64
2021/12/05 03:59:58;;;;;;;20.32;9.83;;;;;;;0.91;78.02;100327.45;1873986;76;22149;-64
2021/12/05 04:02:53;;;;;;;22.07;10.05;;;;;;;0.93;77.97;100321.66;1873996;76;22133;-64
2021/12/05 04:05:25;;;;;;;21.10;10.32;;;;;;;0.94;77.90;100320.75;1874038;76;22137;-64
2021/12/05 04:08:20;;;;;;;21.12;10.50;;;;;;;0.96;77.91;100319.34;1892782;76;22120;-64
2021/12/05 04:10:56;;;;;;;22.15;9.80;;;;;;;0.97;77.90;100321.86;1892827;76;22128;-64
2021/12/05 04:13:29;;;;;;;22.45;10.85;;;;;;;0.98;77.77;100327.47;1892812;76;22136;-64
2021/12/05 04:16:21;;;;;;;19.62;9.20;;;;;;;0.99;77.76;100320.02;1892779;76;22149;-64
2021/12/05 04:18:53;;;;;;;20.43;10.08;;;;;;;1.00;77.71;100316.94;1890320;76;22594;-64
2021/12/05 04:21:44;;;;;;;20.90;9.35;;;;;;;0.97;77.60;100313.17;1890283;76;22553;-64
2021/12/05 04:24:16;;;;;;;20.05;9.58;;;;;;;0.98;77.65;100307.84;1892823;76;22141;-64
2021/12/05 04:27:08;;;;;;;21.80;10.05;;;;;;;1.01;77.60;100301.61;1892778;76;22120;-62
2021/12/05 04:29:40;;;;;;;22.22;10.08;;;;;;;1.05;77.54;100301.81;1874031;76;22136;-64
2021/12/05 04:32:31;;;;;;;19.52;9.85;;;;;;;1.08;77.46;100306.85;1892786;76;22127;-63
2021/12/05 04:35:04;;;;;;;20.92;9.83;;;;;;;1.07;77.29;100306.95;1874019;76;22631;-64
2021/12/05 04:37:56;;;;;;;21.45;10.63;;;;;;;1.09;77.37;100309.03;1873992;76;22550;-64
2021/12/05 04:40:28;;;;;;;20.77;10.13;;;;;;;1.09;77.38;100307.72;1892934;76;22135;-64
2021/12/05 04:43:20;;;;;;;21.17;9.65;;;;;;;1.12;77.49;100298.37;1873986;76;22128;-64
2021/12/05 04:45:52;;;;;;;22.07;11.15;;;;;;;1.20;77.53;100309.24;1871297;76;22157;-64
2021/12/05 04:48:46;;;;;;;24.65;11.28;;;;;;;1.25;77.37;100304.11;1874009;76;22138;-64
2021/12/05 04:51:20;;;;;;;21.25;10.68;;;;;;;1.24;77.21;100302.91;1874045;76;22566;-64
2021/12/05 04:54:15;;;;;;;21.65;10.18;;;;;;;1.22;77.48;100300.83;1874005;76;22138;-64
2021/12/05 04:56:48;;;;;;;22.37;10.85;;;;;;;1.15;77.54;100304.74;1874018;76;22587;-65
2021/12/05 04:59:23;;;;;;;23.57;11.08;;;;;;;1.10;77.75;100309.40;1892929;76;22124;-64
2021/12/05 05:02:14;;;;;;;22.07;10.85;;;;;;;1.07;78.11;100314.80;1873972;76;22550;-64
2021/12/05 05:04:47;;;;;;;23.25;9.70;;;;;;;1.06;78.31;100317.05;1874015;76;22142;-64
2021/12/05 05:07:40;;;;;;;21.62;10.40;;;;;;;1.00;78.53;100326.09;1873978;76;22129;-64
2021/12/05 05:10:20;;;;;;;21.42;9.13;;;;;;;0.94;78.68;100322.06;1874030;76;22129;-64
2021/12/05 05:13:10;;;;;;;24.02;9.83;;;;;;;0.92;78.82;100319.98;1873993;76;22121;-64
2021/12/05 05:15:42;;;;;;;20.52;9.98;;;;;;;0.93;79.00;100324.27;1892821;76;22116;-62
2021/12/05 05:18:14;;;;;;;21.80;10.18;;;;;;;0.95;78.89;100331.58;1874018;76;22575;-62
2021/12/05 05:20:53;;;;;;;21.52;10.20;;;;;;;0.94;78.70;100334.27;1874020;76;22137;-61
2021/12/05 05:24:00;;;;;;;22.98;10.70;;;;;;;0.93;78.71;100339.97;1873998;76;22136;-64
2021/12/05 05:43:17;;;;;;;28.02;14.23;;;;;;;0.86;78.56;100332.10;1874024;76;22124;-64
2021/12/05 05:46:06;;;;;;;30.62;16.15;;;;;;;0.83;78.65;100340.11;1873996;76;22117;-64
2021/12/05 05:48:41;;;;;;;26.12;12.90;;;;;;;0.81;78.79;100343.75;1874027;76;22133;-64
2021/12/05 05:51:10;;;;;;;29.72;15.03;;;;;;;0.83;78.91;100345.34;1874032;76;22154;-64
2021/12/05 05:53:44;;;;;;;37.55;17.75;;;;;;;0.87;78.95;100351.25;1890343;76;22132;-65
2021/12/05 05:56:36;;;;;;;32.95;15.98;;;;;;;0.91;78.88;100344.92;1892783;76;22145;-66
2021/12/05 05:59:17;;;;;;;39.67;19.50;;;;;;;0.90;78.67;100345.86;1874153;76;22137;-64
2021/12/05 06:02:03;;;;;;;40.40;20.80;;;;;;;0.89;78.82;100347.59;1874029;76;22142;-62
2021/12/05 06:04:16;;;;;;;35.03;17.30;;;;;;;0.94;78.81;100348.22;1874026;76;22162;-65
2021/12/05 06:07:08;;;;;;;31.68;16.48;;;;;;;0.95;78.45;100344.66;1873955;76;22154;-63
2021/12/05 06:09:40;;;;;;;40.10;19.77;;;;;;;0.93;78.47;100344.36;1892816;76;22161;-64
2021/12/05 06:12:31;;;;;;;28.92;14.10;;;;;;;0.94;78.54;100339.06;1892784;76;22554;-63
2021/12/05 06:15:05;;;;;;;24.00;11.78;;;;;;;0.96;78.48;100341.11;1874028;76;22182;-64
2021/12/05 06:17:57;;;;;;;25.60;13.08;;;;;;;0.98;78.38;100340.55;1873998;76;22124;-64
2021/12/05 06:20:30;;;;;;;25.45;12.55;;;;;;;0.98;78.20;100329.23;1892818;76;22549;-64
2021/12/05 06:23:02;;;;;;;29.15;14.98;;;;;;;0.96;78.12;100324.11;1874020;76;22144;-64
2021/12/05 06:25:53;;;;;;;25.05;12.37;;;;;;;0.94;78.07;100329.91;1892771;76;22569;-64
2021/12/05 06:31:26;;;;;;;23.07;10.98;;;;;;;0.85;78.05;100327.80;1892784;76;22124;-64
2021/12/05 06:37:13;;;;;;;22.85;10.88;;;;;;;0.80;78.22;100342.91;1871324;76;22146;-63
2021/12/05 06:47:57;;;;;;;22.95;11.55;;;;;;;0.70;77.72;100379.63;1874025;76;22128;-64
2021/12/05 06:50:48;;;;;;;21.48;9.90;;;;;;;0.65;77.81;100380.34;1892797;76;22165;-64
2021/12/05 06:53:19;;;;;;;21.90;10.63;;;;;;;0.61;77.63;100375.77;1874032;76;22141;-64
2021/12/05 06:55:51;;;;;;;23.05;11.15;;;;;;;0.54;77.59;100377.48;1874024;76;22554;-64
2021/12/05 06:58:23;;;;;;;20.92;10.70;;;;;;;0.53;77.69;100379.72;1892818;76;22589;-64
2021/12/05 07:00:55;;;;;;;22.93;11.78;;;;;;;0.49;77.62;100369.89;1874038;76;22146;-64
2021/12/05 07:03:27;;;;;;;23.60;11.65;;;;;;;0.45;77.14;100361.36;1873914;76;22133;-64
2021/12/05 07:08:55;;;;;;;20.30;9.53;;;;;;;0.33;76.98;100351.59;1874015;76;22125;-64
2021/12/05 07:11:57;;;;;;;19.98;9.10;;;;;;;0.28;77.09;100341.81;1873872;76;22137;-63
2021/12/05 07:22:45;;;;;;;23.85;10.20;;;;;;;0.30;77.08;100346.52;1874026;76;22141;-64
2021/12/05 07:25:42;;;;;;;22.75;10.45;;;;;;;0.36;77.18;100348.79;1874014;76;22128;-63
2021/12/05 07:43:12;;;;;;;26.33;14.65;;;;;;;0.46;76.15;100367.42;1892796;76;22164;-64
2021/12/05 07:45:50;;;;;;;18.45;8.78;;;;;;;0.47;76.30;100358.66;1874033;76;22575;-63
2021/12/05 07:48:25;;;;;;;20.70;9.80;;;;;;;0.45;75.84;100348.77;1874017;76;22133;-64
2021/12/05 07:54:16;;;;;;;21.25;9.58;;;;;;;0.43;76.18;100359.31;1873921;76;22157;-62
2021/12/05 07:56:49;;;;;;;22.85;9.18;;;;;;;0.45;76.13;100343.06;1874026;76;22137;-63
2021/12/05 08:16:48;;;;;;;22.60;10.38;;;;;;;0.30;76.36;100367.42;1892813;76;22569;-63
2021/12/05 08:19:21;;;;;;;24.05;9.83;;;;;;;0.27;76.48;100353.67;1874025;76;22137;-64
2021/12/05 08:24:47;;;;;;;20.80;8.75;;;;;;;0.26;76.77;100359.36;1873957;76;22137;-64
2021/12/05 08:27:19;;;;;;;20.92;9.20;;;;;;;0.28;76.75;100357.49;1874044;76;22133;-63
2021/12/05 08:29:55;;;;;;;20.85;8.75;;;;;;;0.28;76.60;100348.34;1874048;76;22121;-61
2021/12/05 09:22:38;;;;;;;31.50;14.43;;;;;;;0.49;76.60;100353.73;1874017;76;22136;-63
2021/12/05 09:25:02;;;;;;;23.35;12.33;;;;;;;0.48;76.55;100357.28;1858002;76;27873;-63
2021/12/05 09:27:58;;;;;;;23.02;12.70;;;;;;;0.53;76.45;100362.27;1857949;76;27887;-63
2021/12/05 10:01:42;;;;;;;23.80;12.50;;;;;;;0.53;76.80;100365.34;1858115;76;29817;-64
2021/12/05 10:08:32;;;;;;;21.42;10.85;;;;;;;0.51;76.91;100359.71;1874018;76;22133;-63
2021/12/05 10:11:16;;;;;;;20.92;10.70;;;;;;;0.55;77.12;100360.39;1892798;76;22148;-63
2021/12/05 10:16:24;;;;;;;20.70;9.98;;;;;;;0.60;77.01;100370.60;1874019;76;22156;-63
2021/12/05 10:19:17;;;;;;;25.05;12.18;;;;;;;0.61;77.21;100375.77;1874026;76;22136;-64
2021/12/05 10:44:10;;;;;;;23.50;9.80;;;;;;;0.84;76.40;100374.48;1892825;76;22153;-63
2021/12/05 10:46:48;;;;;;;21.60;9.78;;;;;;;0.84;76.31;100367.94;1874028;76;22133;-64
2021/12/05 10:49:38;;;;;;;19.55;9.23;;;;;;;0.82;76.38;100355.89;1874017;76;22142;-63
2021/12/05 10:52:13;;;;;;;21.37;10.25;;;;;;;0.82;76.35;100359.34;1874039;76;22146;-64
2021/12/05 10:55:07;;;;;;;21.95;10.15;;;;;;;0.81;76.36;100353.75;1873995;76;22120;-63
2021/12/05 10:57:52;;;;;;;23.15;9.98;;;;;;;0.86;76.24;100360.88;1874031;76;22174;-63
2021/12/05 11:00:43;;;;;;;21.57;9.80;;;;;;;0.85;75.79;100358.32;1874011;76;22557;-64
2021/12/05 11:03:18;;;;;;;22.02;9.35;;;;;;;0.86;76.05;100366.56;1892826;76;22144;-63
2021/12/05 11:05:52;;;;;;;19.57;9.48;;;;;;;0.90;75.99;100361.08;1874033;76;22137;-63
2021/12/05 11:08:42;;;;;;;23.32;10.05;;;;;;;0.93;75.82;100366.13;1873976;76;22125;-62
2021/12/05 11:11:16;;;;;;;20.00;9.23;;;;;;;0.93;75.73;100360.05;1874009;76;22129;-63
2021/12/05 11:14:11;;;;;;;19.82;10.20;;;;;;;0.92;75.72;100356.59;1873997;76;22121;-63
2021/12/05 11:17:06;;;;;;;21.40;10.85;;;;;;;0.92;75.75;100357.06;1876737;76;38221;-64
2021/12/05 11:20:12;;;;;;;19.73;9.83;;;;;;;0.97;75.65;100355.87;1874033;76;22149;-64
2021/12/05 11:22:55;;;;;;;20.02;9.08;;;;;;;1.02;75.69;100367.38;1892809;76;22123;-64
2021/12/05 11:25:46;;;;;;;19.07;8.80;;;;;;;1.01;75.89;100366.55;1874009;76;22142;-64
2021/12/05 11:28:24;;;;;;;20.52;10.00;;;;;;;0.98;75.73;100371.94;1892836;76;22153;-64
2021/12/05 11:30:56;;;;;;;21.27;9.90;;;;;;;0.95;75.96;100365.59;1874023;76;22128;-64
2021/12/05 11:33:49;;;;;;;19.23;9.63;;;;;;;0.96;75.92;100358.58;1892794;76;22152;-64
2021/12/05 11:36:40;;;;;;;19.80;9.25;;;;;;;0.95;75.93;100375.21;1874127;76;22146;-65
2021/12/05 11:39:23;;;;;;;20.70;10.40;;;;;;;0.95;76.15;100378.67;1892817;76;22569;-64
2021/12/05 11:42:20;;;;;;;18.67;9.38;;;;;;;1.02;76.00;100380.46;1874019;76;22144;-63
2021/12/05 11:44:56;;;;;;;21.00;8.83;;;;;;;1.06;75.98;100377.22;1874025;76;22156;-63
2021/12/05 11:47:44;;;;;;;20.55;9.08;;;;;;;1.12;75.84;100390.78;1871270;76;22558;-63
2021/12/05 11:50:37;;;;;;;19.82;8.30;;;;;;;1.13;75.41;100400.78;1877460;75;22199;-64
2021/12/05 11:53:42;;;;;;;18.37;8.55;;;;;;;1.09;75.66;100370.05;1874007;76;22154;-64
2021/12/05 11:56:39;;;;;;;20.40;9.90;;;;;;;1.14;75.70;100360.16;1892815;76;22157;-64
2021/12/05 11:59:41;;;;;;;19.23;8.83;;;;;;;1.19;75.45;100358.59;1873898;76;22157;-64
2021/12/05 12:02:26;;;;;;;19.57;9.18;;;;;;;1.18;75.28;100348.59;1873911;76;22133;-63
2021/12/05 12:05:31;;;;;;;21.10;9.58;;;;;;;1.19;75.25;100348.13;1874025;76;22133;-63
2021/12/05 12:08:09;;;;;;;18.45;8.58;;;;;;;1.22;75.26;100359.70;1892808;76;22144;-64
2021/12/05 12:11:06;;;;;;;18.00;7.78;;;;;;;1.21;75.31;100369.80;1873145;76;22128;-63
2021/12/05 12:13:40;;;;;;;19.30;9.18;;;;;;;1.20;75.19;100344.56;1890333;76;22601;-63
2021/12/05 12:16:33;;;;;;;18.00;8.40;;;;;;;1.16;74.97;100326.89;1874008;76;22120;-64
2021/12/05 12:19:06;;;;;;;19.45;8.60;;;;;;;1.12;75.15;100338.45;1873920;76;22133;-63
2021/12/05 12:21:42;;;;;;;18.90;8.60;;;;;;;1.15;75.21;100340.91;1874044;76;22132;-64
2021/12/05 12:24:31;;;;;;;23.10;9.98;;;;;;;1.15;75.33;100337.45;1873989;76;22121;-63
2021/12/05 12:27:04;;;;;;;25.25;12.45;;;;;;;1.14;75.27;100324.84;1874044;76;22137;-64
2021/12/05 12:29:37;;;;;;;21.75;9.93;;;;;;;1.11;75.21;100326.78;1874027;76;22615;-64
2021/12/05 12:32:12;;;;;;;18.05;8.05;;;;;;;1.11;75.24;100334.63;1874035;76;22133;-64
2021/12/05 12:35:16;;;;;;;17.42;7.87;;;;;;;1.14;75.20;100341.00;1874105;76;22137;-63
2021/12/05 12:38:07;;;;;;;19.05;8.63;;;;;;;1.15;74.85;100355.30;1892939;76;22128;-64
2021/12/05 12:41:05;;;;;;;19.15;8.78;;;;;;;1.11;75.08;100364.25;1874015;76;22149;-64
2021/12/05 12:44:01;;;;;;;20.52;9.23;;;;;;;1.14;75.23;100368.48;1892813;76;22148;-63
2021/12/05 12:46:52;;;;;;;21.33;9.18;;;;;;;1.15;75.29;100374.92;1892709;76;22149;-63
2021/12/05 12:49:41;;;;;;;22.32;10.43;;;;;;;1.18;75.25;100379.16;1874136;76;22140;-65
2021/12/05 12:52:32;;;;;;;19.10;8.75;;;;;;;1.16;75.36;100377.91;1873998;76;22145;-64
2021/12/05 12:55:05;;;;;;;20.90;9.83;;;;;;;1.23;75.54;100375.34;1874151;76;22125;-64
2021/12/05 12:57:57;;;;;;;19.45;8.55;;;;;;;1.32;75.30;100385.75;1890297;76;22135;-63
2021/12/05 13:00:32;;;;;;;18.62;8.93;;;;;;;1.32;74.98;100388.80;1874036;76;22136;-63
2021/12/05 13:04:05;;;;;;;20.05;9.03;;;;;;;1.31;74.70;100399.74;1873124;76;22134;-63
2021/12/05 13:11:55;;;;;;;19.73;9.98;;;;;;;1.30;74.25;100404.61;1874030;76;22542;-61
2021/12/05 13:15:19;;;;;;;20.35;8.85;;;;;;;1.28;74.24;100396.85;1874015;76;22129;-63
2021/12/05 13:18:01;;;;;;;16.05;7.58;;;;;;;1.26;74.43;100400.00;1892818;76;22140;-63
2021/12/05 13:21:06;;;;;;;17.90;8.23;;;;;;;1.19;74.24;100403.08;1874017;76;22136;-63
2021/12/05 13:23:53;;;;;;;18.42;8.70;;;;;;;1.14;74.64;100426.04;1871301;76;22138;-63
2021/12/05 13:26:36;;;;;;;18.65;8.80;;;;;;;1.12;74.69;100438.34;1874033;76;22129;-63
2021/12/05 13:29:30;;;;;;;20.85;9.83;;;;;;;1.10;74.90;100444.98;1874005;76;22129;-61
2021/12/05 13:32:25;;;;;;;21.52;9.43;;;;;;;1.10;75.03;100451.99;1873923;76;22154;-64
2021/12/05 13:35:00;;;;;;;21.65;8.83;;;;;;;1.13;75.04;100455.73;1874014;76;22161;-64
2021/12/05 13:37:53;;;;;;;54.00;25.00;;;;;;;1.16;74.81;100477.81;1892779;76;22128;-63
2021/12/05 13:40:28;;;;;;;64.22;30.43;;;;;;;1.18;74.74;100475.50;1874128;76;22121;-64
2021/12/05 13:43:26;;;;;;;27.90;14.00;;;;;;;1.20;74.84;100480.64;1873985;76;22128;-64
2021/12/05 13:46:03;;;;;;;25.10;12.23;;;;;;;1.24;74.76;100473.84;1874137;76;22157;-64
2021/12/05 13:48:34;;;;;;;24.90;12.73;;;;;;;1.29;74.72;100485.37;1874026;76;22570;-64
2021/12/05 13:51:06;;;;;;;20.05;9.53;;;;;;;1.30;74.60;100504.06;1874036;76;22129;-64
2021/12/05 13:53:51;;;;;;;17.23;7.92;;;;;;;1.32;74.57;100517.05;1892923;76;22157;-64
2021/12/05 13:56:26;;;;;;;15.08;6.62;;;;;;;1.36;74.36;100518.11;1874012;76;22619;-62
2021/12/05 13:59:05;;;;;;;17.52;7.28;;;;;;;1.37;74.24;100507.20;1874013;76;22132;-65
2021/12/05 14:01:56;;;;;;;17.00;6.95;;;;;;;1.39;74.33;100515.80;1874013;76;22221;-64
2021/12/05 14:04:28;;;;;;;20.92;9.35;;;;;;;1.41;74.38;100510.00;1874039;76;22566;-64
2021/12/05 14:07:07;;;;;;;21.73;9.98;;;;;;;1.46;74.40;100519.78;1874033;76;22128;-64
2021/12/05 14:09:43;;;;;;;19.32;9.60;;;;;;;1.52;74.32;100516.81;1892828;76;22165;-64
2021/12/05 14:12:27;;;;;;;20.50;10.93;;;;;;;1.56;74.17;100517.49;1858108;76;27896;-63
2021/12/05 14:15:17;;;;;;;22.25;10.03;;;;;;;1.69;73.90;100521.92;1874014;76;22133;-62
2021/12/05 14:17:51;;;;;;;21.57;8.88;;;;;;;1.76;73.67;100524.59;1874039;76;22121;-63
2021/12/05 14:20:25;;;;;;;20.68;9.58;;;;;;;1.79;73.52;100519.19;1874135;76;22129;-63
2021/12/05 14:22:58;;;;;;;20.92;9.93;;;;;;;1.81;73.35;100521.71;1874018;76;22137;-63
2021/12/05 14:25:32;;;;;;;18.67;8.83;;;;;;;1.82;73.33;100528.63;1873914;76;22162;-64
2021/12/05 14:28:23;;;;;;;24.12;10.55;;;;;;;1.86;73.21;100530.61;1892809;76;22128;-61
2021/12/05 14:30:57;;;;;;;20.27;8.20;;;;;;;1.88;73.07;100533.51;1874038;76;22133;-64
2021/12/05 14:36:36;;;;;;;23.07;8.98;;;;;;;1.91;72.81;100548.22;1874035;76;22582;-64
2021/12/05 14:39:47;;;;;;;24.02;10.82;;;;;;;1.95;72.79;100553.67;1892811;76;22157;-65
2021/12/05 14:42:22;;;;;;;20.48;9.33;;;;;;;2.00;72.61;100557.71;1874030;76;22137;-64
2021/12/05 14:45:21;;;;;;;18.92;8.03;;;;;;;2.04;72.48;100557.92;1873974;76;22157;-61
2021/12/05 14:47:56;;;;;;;17.17;8.40;;;;;;;2.07;72.27;100559.53;1874007;76;22121;-64
2021/12/05 14:53:24;;;;;;;17.73;8.80;;;;;;;2.17;72.05;100575.09;1874029;76;22154;-65
2021/12/05 14:56:21;;;;;;;20.62;10.10;;;;;;;2.22;71.89;100578.30;1873985;76;22554;-65
2021/12/05 14:59:12;;;;;;;21.35;10.13;;;;;;;2.26;71.87;100584.22;1873204;76;22128;-65
2021/12/05 15:01:47;;;;;;;17.35;8.68;;;;;;;2.19;71.69;100582.39;1874026;76;22173;-65
2021/12/05 15:04:26;;;;;;;19.60;9.35;;;;;;;2.14;71.83;100587.06;1871193;76;22182;-64
2021/12/05 15:07:19;;;;;;;20.17;8.58;;;;;;;2.13;71.75;100587.16;1874027;76;22145;-64
2021/12/05 15:09:54;;;;;;;18.60;8.58;;;;;;;2.10;71.89;100589.94;1874124;76;22137;-61
2021/12/05 15:12:49;;;;;;;15.53;7.45;;;;;;;2.13;71.85;100581.45;1870025;75;22157;-61
2021/12/05 15:15:22;;;;;;;17.40;7.33;;;;;;;2.12;71.81;100576.27;1874036;76;22562;-62
2021/12/05 15:17:55;;;;;;;16.70;7.62;;;;;;;2.10;71.78;100572.44;1874044;76;22133;-64
2021/12/05 15:20:48;;;;;;;23.98;11.08;;;;;;;2.07;71.90;100567.39;1873995;76;22136;-64
2021/12/05 15:23:21;;;;;;;19.92;8.80;;;;;;;2.09;72.05;100571.22;1890332;76;22140;-64
2021/12/05 15:25:53;;;;;;;15.55;7.28;;;;;;;2.05;71.91;100567.46;1874020;76;22121;-64
2021/12/05 15:28:44;;;;;;;14.98;7.28;;;;;;;2.00;72.09;100573.44;1874007;76;22570;-64
2021/12/05 15:31:16;;;;;;;17.50;7.85;;;;;;;2.03;72.18;100572.42;1874031;76;22154;-62
2021/12/05 15:33:50;;;;;;;14.90;6.78;;;;;;;2.03;71.97;100576.36;1892808;76;22157;-64
2021/12/05 15:36:34;;;;;;;14.53;6.42;;;;;;;1.98;72.05;100583.17;1873075;76;22166;-64
2021/12/05 15:39:20;;;;;;;15.95;6.85;;;;;;;1.99;72.17;100587.94;1874032;76;22185;-63
2021/12/05 15:41:55;;;;;;;16.62;7.85;;;;;;;1.98;71.94;100579.70;1892809;76;22132;-63
2021/12/05 15:44:49;;;;;;;15.72;7.62;;;;;;;1.97;72.08;100589.31;1876568;76;38626;-64
2021/12/05 15:47:25;;;;;;;23.65;11.25;;;;;;;2.03;71.98;100587.68;1874022;76;22129;-64
2021/12/05 15:50:12;;;;;;;24.67;10.78;;;;;;;2.07;71.93;100587.48;1874050;76;20106;-61
2021/12/05 15:53:05;;;;;;;21.45;10.18;;;;;;;2.04;71.91;100589.36;1871309;76;22125;-64
2021/12/05 15:56:03;;;;;;;22.58;9.90;;;;;;;1.98;72.10;100588.88;1874177;76;20201;-64
2021/12/05 15:59:02;;;;;;;22.50;9.43;;;;;;;1.93;72.36;100593.06;1874128;76;22140;-64
2021/12/05 16:01:32;;;;;;;35.65;17.05;;;;;;;1.91;72.48;100599.31;1874030;76;22124;-65
2021/12/05 16:04:25;;;;;;;37.48;18.20;;;;;;;1.91;72.64;100598.84;1874001;76;22113;-64
2021/12/05 16:07:08;;;;;;;26.60;13.20;;;;;;;1.88;72.79;100597.69;1892810;76;22157;-64
2021/12/05 16:09:41;;;;;;;24.12;11.70;;;;;;;1.88;72.89;100604.24;1873919;76;22565;-64
2021/12/05 16:12:39;;;;;;;20.37;10.00;;;;;;;1.84;72.89;100607.99;1890307;76;22124;-64
2021/12/05 16:15:11;;;;;;;22.52;9.75;;;;;;;1.77;72.99;100613.17;1874033;76;22607;-64
2021/12/05 16:17:53;;;;;;;22.25;10.25;;;;;;;1.76;73.28;100607.56;1873920;76;22154;-64
2021/12/05 16:20:49;;;;;;;27.37;13.80;;;;;;;1.83;73.23;100604.97;1874016;76;22121;-64
2021/12/05 16:23:32;;;;;;;29.63;14.65;;;;;;;1.90;73.03;100606.33;1874151;76;22154;-64
2021/12/05 16:26:21;;;;;;;26.80;14.25;;;;;;;1.96;73.06;100598.58;1874030;76;22168;-63
2021/12/05 16:28:57;;;;;;;27.15;14.98;;;;;;;2.00;72.84;100596.17;1874033;76;22177;-64
2021/12/05 16:31:45;;;;;;;30.52;16.73;;;;;;;2.08;72.66;100594.44;1873193;76;22147;-64
2021/12/05 16:34:21;;;;;;;35.48;18.60;;;;;;;2.14;72.51;100598.02;1874003;76;22575;-64
2021/12/05 16:37:16;;;;;;;25.12;11.53;;;;;;;2.24;72.22;100599.17;1873974;76;22174;-64
2021/12/05 16:40:10;;;;;;;22.20;11.25;;;;;;;2.33;71.80;100593.39;1857864;76;27937;-63
2021/12/05 16:43:09;;;;;;;20.95;10.25;;;;;;;2.44;71.01;100598.84;1873207;76;20109;-64
2021/12/05 16:45:41;;;;;;;23.50;11.70;;;;;;;2.49;70.67;100605.13;1858220;76;27896;-64
2021/12/05 16:48:35;;;;;;;25.68;12.98;;;;;;;2.64;70.36;100606.87;1873997;76;22136;-64
2021/12/05 16:51:25;;;;;;;32.95;16.75;;;;;;;2.64;69.85;100609.97;1873916;76;22206;-65
2021/12/05 16:54:28;;;;;;;24.55;11.83;;;;;;;2.61;69.72;100610.98;1892820;76;22128;-64
2021/12/05 16:57:17;;;;;;;21.57;9.23;;;;;;;2.59;69.72;100610.24;1892682;76;22144;-64
2021/12/05 17:00:19;;;;;;;21.73;10.48;;;;;;;2.52;69.33;100620.70;1892826;76;22148;-64
2021/12/05 17:03:09;;;;;;;24.70;11.38;;;;;;;2.42;69.41;100611.22;1874033;76;22137;-64
2021/12/05 17:06:09;;;;;;;30.08;12.07;;;;;;;2.33;69.42;100615.68;1873997;76;22128;-65
2021/12/05 17:08:35;;;;;;;28.15;10.58;;;;;;;2.23;69.58;100623.70;1892830;76;22161;-65
2021/12/05 17:11:12;;;;;;;28.40;12.10;;;;;;;2.17;69.82;100629.30;1892820;76;22128;-64
2021/12/05 17:14:03;;;;;;;30.00;15.03;;;;;;;2.16;70.09;100628.89;1857958;76;27817;-64
2021/12/05 17:16:43;;;;;;;29.52;12.95;;;;;;;2.27;70.07;100616.05;1873064;76;22177;-65
2021/12/05 17:19:18;;;;;;;29.20;13.33;;;;;;;2.38;69.85;100614.11;1858100;76;27877;-64
2021/12/05 17:22:09;;;;;;;26.17;12.78;;;;;;;2.47;69.50;100604.39;1892772;76;22575;-65
2021/12/05 17:24:43;;;;;;;26.23;11.83;;;;;;;2.44;69.29;100601.47;1874021;76;22158;-64
2021/12/05 17:27:36;;;;;;;26.10;12.47;;;;;;;2.34;69.24;100601.62;1873992;76;22624;-64
2021/12/05 17:30:10;;;;;;;23.80;11.05;;;;;;;2.25;69.52;100600.38;1874023;76;22137;-64
2021/12/05 17:32:43;;;;;;;23.60;10.32;;;;;;;2.25;69.69;100604.31;1892921;76;22157;-64
2021/12/05 17:35:18;;;;;;;19.15;9.65;;;;;;;2.22;69.63;100611.06;1874020;76;22116;-64
2021/12/05 17:38:09;;;;;;;17.90;8.28;;;;;;;2.16;69.76;100619.25;1874010;76;22121;-64
2021/12/05 17:40:41;;;;;;;24.37;11.73;;;;;;;2.18;69.93;100624.43;1892821;76;22132;-64
2021/12/05 17:43:32;;;;;;;26.23;12.03;;;;;;;2.20;69.95;100609.45;1871360;75;22200;-64
2021/12/05 17:46:04;;;;;;;22.22;10.10;;;;;;;2.22;70.05;100606.29;1874038;76;22128;-64
2021/12/05 17:48:58;;;;;;;19.27;9.80;;;;;;;2.20;70.02;100601.58;1874018;76;22196;-65
2021/12/05 17:51:47;;;;;;;;;;;;;;;;;;;;;
2021/12/05 17:54:26;;;;;;;19.05;8.40;;;;;;;1.96;70.80;100595.96;1874033;76;22125;-64
2021/12/05 17:57:17;;;;;;;17.00;7.95;;;;;;;1.90;71.35;100598.47;1874014;76;22608;-64
2021/12/05 18:03:12;;;;;;;20.90;7.92;;;;;;;1.91;71.73;100604.55;1892818;76;22157;-64